TAM3841 SBSN-SBBR
Flight info
| Callsign | TAM3841 |
|---|---|
| Flight time | N/A |
| Altitude | 35000 |
| Route | RIDAL DCT GELVU UP535 MOMSO UZ24 OPNAX |
| Aircraft | A320/M-SDE3FGHIRWY/LB1 |
Departure
| Time | 2026-04-28 14:59 |
|---|---|
| Airport | Santarém - Maestro Wilson Fonseca International Airport (SBSN) |
Arrival
| Time | N/A |
|---|---|
| Airport | Presidente Juscelino Kubitschek International Airport (SBBR) |
| Time | Latitude | Longitude | Altitude | Speed | Heading |
|---|---|---|---|---|---|
| 2026-04-28 14:22 | -2.42284 | -54.78456 | 200 ft | 0 kts | 350° |
| 2026-04-28 14:23 | -2.42278 | -54.78440 | 197 ft | 0 kts | 352° |
| 2026-04-28 14:45 | -2.42285 | -54.78441 | 201 ft | 3 kts | 308° |
| 2026-04-28 14:45 | -2.42287 | -54.78429 | 202 ft | 3 kts | 287° |
| 2026-04-28 14:46 | -2.42298 | -54.78408 | 204 ft | 3 kts | 290° |
| 2026-04-28 14:46 | -2.42300 | -54.78397 | 199 ft | 0 kts | 270° |
| 2026-04-28 14:52 | -2.42300 | -54.78402 | 198 ft | 2 kts | 270° |
| 2026-04-28 14:52 | -2.42301 | -54.78428 | 195 ft | 5 kts | 267° |
| 2026-04-28 14:52 | -2.42309 | -54.78475 | 194 ft | 8 kts | 254° |
| 2026-04-28 14:53 | -2.42333 | -54.78531 | 199 ft | 9 kts | 239° |
| 2026-04-28 14:53 | -2.42354 | -54.78581 | 195 ft | 8 kts | 294° |
| 2026-04-28 14:53 | -2.42315 | -54.78621 | 198 ft | 8 kts | 315° |
| 2026-04-28 14:53 | -2.42277 | -54.78659 | 190 ft | 7 kts | 317° |
| 2026-04-28 14:54 | -2.42240 | -54.78693 | 204 ft | 7 kts | 317° |
| 2026-04-28 14:54 | -2.42205 | -54.78725 | 196 ft | 6 kts | 317° |
| 2026-04-28 14:54 | -2.42168 | -54.78765 | 195 ft | 11 kts | 300° |
| 2026-04-28 14:54 | -2.42174 | -54.78868 | 200 ft | 19 kts | 261° |
| 2026-04-28 14:55 | -2.42203 | -54.79028 | 205 ft | 27 kts | 258° |
| 2026-04-28 14:55 | -2.42235 | -54.79244 | 188 ft | 34 kts | 261° |
| 2026-04-28 14:55 | -2.42275 | -54.79483 | 192 ft | 35 kts | 261° |
| 2026-04-28 14:55 | -2.42317 | -54.79730 | 181 ft | 37 kts | 263° |
| 2026-04-28 14:56 | -2.42352 | -54.79958 | 182 ft | 31 kts | 260° |
| 2026-04-28 14:56 | -2.42382 | -54.80136 | 179 ft | 19 kts | 260° |
| 2026-04-28 14:56 | -2.42400 | -54.80236 | 178 ft | 13 kts | 257° |
| 2026-04-28 14:56 | -2.42446 | -54.80285 | 178 ft | 6 kts | 226° |
| 2026-04-28 14:57 | -2.42447 | -54.80316 | 178 ft | 5 kts | 291° |
| 2026-04-28 14:57 | -2.42425 | -54.80324 | 177 ft | 5 kts | 1° |
| 2026-04-28 14:57 | -2.42409 | -54.80296 | 177 ft | 3 kts | 78° |
| 2026-04-28 14:57 | -2.42406 | -54.80281 | 177 ft | 1 kts | 80° |
| 2026-04-28 14:58 | -2.42403 | -54.80265 | 177 ft | 11 kts | 80° |
| 2026-04-28 14:58 | -2.42350 | -54.79939 | 182 ft | 83 kts | 81° |
| 2026-04-28 14:58 | -2.42223 | -54.79172 | 191 ft | 138 kts | 81° |
| 2026-04-28 14:58 | -2.42063 | -54.78161 | 684 ft | 147 kts | 82° |
| 2026-04-28 14:59 | -2.41895 | -54.77139 | 1343 ft | 150 kts | 80° |
| 2026-04-28 14:59 | -2.41703 | -54.76035 | 1662 ft | 172 kts | 80° |
| 2026-04-28 14:59 | -2.41497 | -54.74774 | 1954 ft | 193 kts | 82° |
| 2026-04-28 14:59 | -2.41303 | -54.73378 | 2249 ft | 213 kts | 84° |
| 2026-04-28 15:00 | -2.41530 | -54.71848 | 2541 ft | 236 kts | 117° |
| 2026-04-28 15:00 | -2.42757 | -54.70677 | 3149 ft | 260 kts | 153° |
| 2026-04-28 15:00 | -2.44575 | -54.70373 | 3848 ft | 276 kts | 186° |
| 2026-04-28 15:00 | -2.46337 | -54.71137 | 4644 ft | 283 kts | 221° |
| 2026-04-28 15:01 | -2.47418 | -54.72766 | 5504 ft | 286 kts | 252° |
| 2026-04-28 15:01 | -2.47886 | -54.74699 | 6419 ft | 286 kts | 255° |
| 2026-04-28 15:01 | -2.48788 | -54.76472 | 7103 ft | 291 kts | 225° |
| 2026-04-28 15:01 | -2.50497 | -54.77512 | 7816 ft | 291 kts | 192° |
| 2026-04-28 15:02 | -2.52494 | -54.77487 | 8575 ft | 290 kts | 160° |
| 2026-04-28 15:02 | -2.54345 | -54.76689 | 9325 ft | 291 kts | 156° |
| 2026-04-28 15:02 | -2.56354 | -54.76376 | 10009 ft | 299 kts | 186° |
| 2026-04-28 15:02 | -2.58380 | -54.77007 | 10547 ft | 312 kts | 204° |
| 2026-04-28 15:03 | -2.60313 | -54.78042 | 11108 ft | 318 kts | 209° |
| 2026-04-28 15:03 | -2.62234 | -54.79178 | 11737 ft | 323 kts | 209° |
| 2026-04-28 15:03 | -2.64204 | -54.80281 | 12400 ft | 326 kts | 207° |
| 2026-04-28 15:03 | -2.66241 | -54.81308 | 13063 ft | 330 kts | 204° |
| 2026-04-28 15:04 | -2.68339 | -54.82265 | 13713 ft | 333 kts | 202° |
| 2026-04-28 15:04 | -2.70476 | -54.83180 | 14282 ft | 336 kts | 202° |
| 2026-04-28 15:04 | -2.72526 | -54.84331 | 14850 ft | 340 kts | 215° |
| 2026-04-28 15:04 | -2.74382 | -54.85860 | 15125 ft | 354 kts | 217° |
| 2026-04-28 15:05 | -2.76602 | -54.87005 | 15242 ft | 368 kts | 192° |
| 2026-04-28 15:05 | -2.79174 | -54.87078 | 15420 ft | 377 kts | 166° |
| 2026-04-28 15:05 | -2.81686 | -54.86282 | 15795 ft | 382 kts | 160° |
| 2026-04-28 15:05 | -2.84228 | -54.85475 | 16287 ft | 385 kts | 162° |
| 2026-04-28 15:06 | -2.86813 | -54.84743 | 16805 ft | 388 kts | 163° |
| 2026-04-28 15:06 | -2.89430 | -54.84055 | 17304 ft | 390 kts | 164° |
| 2026-04-28 15:06 | -2.92069 | -54.83381 | 17806 ft | 393 kts | 164° |
| 2026-04-28 15:06 | -2.94726 | -54.82701 | 18286 ft | 395 kts | 164° |
| 2026-04-28 15:07 | -2.97398 | -54.82008 | 18700 ft | 398 kts | 164° |
| 2026-04-28 15:07 | -3.00084 | -54.81300 | 19097 ft | 401 kts | 163° |
| 2026-04-28 15:07 | -3.02788 | -54.80575 | 19493 ft | 403 kts | 163° |
| 2026-04-28 15:07 | -3.05496 | -54.79842 | 19889 ft | 405 kts | 163° |
| 2026-04-28 15:08 | -3.08231 | -54.79100 | 20276 ft | 408 kts | 163° |
| 2026-04-28 15:08 | -3.10976 | -54.78356 | 20674 ft | 410 kts | 163° |
| 2026-04-28 15:08 | -3.13739 | -54.77609 | 21069 ft | 413 kts | 163° |
| 2026-04-28 15:08 | -3.16518 | -54.76862 | 21443 ft | 415 kts | 163° |
| 2026-04-28 15:09 | -3.18366 | -54.76366 | 21687 ft | 417 kts | 163° |
| 2026-04-28 15:09 | -3.21178 | -54.75612 | 22061 ft | 419 kts | 163° |
| 2026-04-28 15:09 | -3.23993 | -54.74854 | 22431 ft | 421 kts | 163° |
| 2026-04-28 15:09 | -3.26834 | -54.74088 | 22795 ft | 423 kts | 163° |
| 2026-04-28 15:10 | -3.29684 | -54.73318 | 23155 ft | 425 kts | 163° |
| 2026-04-28 15:10 | -3.32549 | -54.72545 | 23502 ft | 428 kts | 163° |
| 2026-04-28 15:10 | -3.35436 | -54.71768 | 23808 ft | 430 kts | 163° |
| 2026-04-28 15:10 | -3.38325 | -54.70992 | 24086 ft | 432 kts | 163° |
| 2026-04-28 15:11 | -3.41236 | -54.70211 | 24388 ft | 433 kts | 163° |
| 2026-04-28 15:11 | -3.44154 | -54.69429 | 24681 ft | 435 kts | 162° |
| 2026-04-28 15:11 | -3.47089 | -54.68638 | 24963 ft | 437 kts | 162° |
| 2026-04-28 15:11 | -3.50028 | -54.67845 | 25244 ft | 439 kts | 162° |
| 2026-04-28 15:12 | -3.52980 | -54.67048 | 25523 ft | 440 kts | 162° |
| 2026-04-28 15:12 | -3.55943 | -54.66248 | 25798 ft | 442 kts | 162° |
| 2026-04-28 15:12 | -3.58917 | -54.65447 | 26072 ft | 444 kts | 162° |
| 2026-04-28 15:12 | -3.61903 | -54.64643 | 26360 ft | 445 kts | 162° |
| 2026-04-28 15:13 | -3.64899 | -54.63836 | 26637 ft | 447 kts | 162° |
| 2026-04-28 15:13 | -3.67908 | -54.63025 | 26922 ft | 449 kts | 162° |
| 2026-04-28 15:13 | -3.70928 | -54.62209 | 27192 ft | 451 kts | 162° |
| 2026-04-28 15:13 | -3.73961 | -54.61391 | 27459 ft | 452 kts | 162° |
| 2026-04-28 15:14 | -3.77011 | -54.60568 | 27725 ft | 454 kts | 162° |
| 2026-04-28 15:14 | -3.80068 | -54.59741 | 27981 ft | 456 kts | 162° |
| 2026-04-28 15:14 | -3.83129 | -54.58914 | 28231 ft | 457 kts | 162° |
| 2026-04-28 15:14 | -3.86213 | -54.58083 | 28478 ft | 459 kts | 162° |
| 2026-04-28 15:15 | -3.89304 | -54.57250 | 28706 ft | 461 kts | 162° |
| 2026-04-28 15:15 | -3.92405 | -54.56414 | 28931 ft | 463 kts | 162° |
| 2026-04-28 15:15 | -3.95520 | -54.55579 | 29162 ft | 464 kts | 162° |
| 2026-04-28 15:15 | -3.98645 | -54.54740 | 29396 ft | 466 kts | 162° |
| 2026-04-28 15:16 | -4.01779 | -54.53895 | 29615 ft | 467 kts | 162° |
| 2026-04-28 15:16 | -4.04925 | -54.53044 | 29831 ft | 469 kts | 162° |
| 2026-04-28 15:16 | -4.08082 | -54.52190 | 30041 ft | 471 kts | 162° |
| 2026-04-28 15:16 | -4.11248 | -54.51335 | 30229 ft | 471 kts | 162° |
| 2026-04-28 15:17 | -4.14414 | -54.50482 | 30486 ft | 471 kts | 163° |
| 2026-04-28 15:17 | -4.17553 | -54.49571 | 30746 ft | 469 kts | 158° |
| 2026-04-28 15:17 | -4.20526 | -54.48246 | 31011 ft | 466 kts | 150° |
| 2026-04-28 15:17 | -4.23382 | -54.46718 | 31272 ft | 465 kts | 150° |
| 2026-04-28 15:18 | -4.26244 | -54.45193 | 31531 ft | 465 kts | 150° |
| 2026-04-28 15:18 | -4.29095 | -54.43679 | 31805 ft | 465 kts | 150° |
| 2026-04-28 15:18 | -4.31956 | -54.42162 | 32057 ft | 464 kts | 150° |
| 2026-04-28 15:18 | -4.34810 | -54.40652 | 32325 ft | 464 kts | 150° |
| 2026-04-28 15:19 | -4.37663 | -54.39147 | 32596 ft | 463 kts | 151° |
| 2026-04-28 15:19 | -4.40476 | -54.37662 | 32860 ft | 463 kts | 151° |
| 2026-04-28 15:19 | -4.43322 | -54.36156 | 33125 ft | 463 kts | 151° |
| 2026-04-28 15:19 | -4.46163 | -54.34645 | 33394 ft | 462 kts | 150° |
| 2026-04-28 15:20 | -4.48999 | -54.33133 | 33673 ft | 462 kts | 151° |
| 2026-04-28 15:20 | -4.51832 | -54.31623 | 33949 ft | 461 kts | 151° |
| 2026-04-28 15:20 | -4.54664 | -54.30119 | 34199 ft | 461 kts | 151° |
| 2026-04-28 15:20 | -4.57493 | -54.28617 | 34436 ft | 460 kts | 151° |
| 2026-04-28 15:21 | -4.60316 | -54.27116 | 34681 ft | 459 kts | 151° |
| 2026-04-28 15:21 | -4.63139 | -54.25612 | 34914 ft | 459 kts | 151° |
| 2026-04-28 15:21 | -4.65954 | -54.24109 | 34998 ft | 458 kts | 151° |
| 2026-04-28 15:22 | -4.71576 | -54.21120 | 35013 ft | 457 kts | 151° |
| 2026-04-28 15:22 | -4.77236 | -54.18118 | 35012 ft | 457 kts | 151° |
| 2026-04-28 15:23 | -4.82863 | -54.15130 | 35010 ft | 458 kts | 151° |
| 2026-04-28 15:23 | -4.88500 | -54.12139 | 35013 ft | 458 kts | 151° |
| 2026-04-28 15:24 | -4.94127 | -54.09143 | 35010 ft | 458 kts | 151° |
| 2026-04-28 15:24 | -4.99756 | -54.06144 | 35006 ft | 458 kts | 151° |
| 2026-04-28 15:25 | -5.05390 | -54.03144 | 35007 ft | 459 kts | 151° |
| 2026-04-28 15:25 | -5.11033 | -54.00140 | 35005 ft | 459 kts | 150° |
| 2026-04-28 15:26 | -5.16673 | -53.97147 | 35006 ft | 459 kts | 151° |
| 2026-04-28 15:26 | -5.22321 | -53.94139 | 35009 ft | 459 kts | 150° |
| 2026-04-28 15:27 | -5.27963 | -53.91129 | 35006 ft | 459 kts | 150° |
| 2026-04-28 15:27 | -5.33611 | -53.88120 | 35008 ft | 460 kts | 151° |
| 2026-04-28 15:28 | -5.39222 | -53.85133 | 35014 ft | 460 kts | 151° |
| 2026-04-28 15:28 | -5.44907 | -53.82103 | 35011 ft | 460 kts | 151° |
| 2026-04-28 15:29 | -5.50565 | -53.79095 | 35016 ft | 460 kts | 151° |
| 2026-04-28 15:29 | -5.56215 | -53.76085 | 35018 ft | 460 kts | 150° |
| 2026-04-28 15:30 | -5.61870 | -53.73066 | 35021 ft | 460 kts | 151° |
| 2026-04-28 15:30 | -5.67516 | -53.70054 | 35024 ft | 459 kts | 150° |
| 2026-04-28 15:31 | -5.73156 | -53.67046 | 35024 ft | 459 kts | 150° |
| 2026-04-28 15:31 | -5.78794 | -53.64038 | 35028 ft | 459 kts | 150° |
| 2026-04-28 15:32 | -5.84396 | -53.61049 | 35025 ft | 458 kts | 151° |
| 2026-04-28 15:32 | -5.90061 | -53.58018 | 35024 ft | 458 kts | 150° |
| 2026-04-28 15:33 | -5.95692 | -53.55014 | 35021 ft | 458 kts | 151° |
| 2026-04-28 15:33 | -6.01331 | -53.52005 | 35019 ft | 459 kts | 151° |
| 2026-04-28 15:34 | -6.06927 | -53.49013 | 35019 ft | 459 kts | 151° |
| 2026-04-28 15:34 | -6.12566 | -53.46005 | 35018 ft | 459 kts | 151° |
| 2026-04-28 15:35 | -6.18206 | -53.42991 | 35020 ft | 459 kts | 150° |
| 2026-04-28 15:35 | -6.26676 | -53.38466 | 35022 ft | 459 kts | 151° |
| 2026-04-28 15:36 | -6.32312 | -53.35448 | 35022 ft | 459 kts | 150° |
| 2026-04-28 15:36 | -6.37961 | -53.32423 | 35020 ft | 460 kts | 151° |
| 2026-04-28 15:37 | -6.43605 | -53.29406 | 35018 ft | 460 kts | 151° |
| 2026-04-28 15:37 | -6.48337 | -53.26871 | 35016 ft | 460 kts | 150° |
| 2026-04-28 15:38 | -6.54905 | -53.23348 | 35016 ft | 460 kts | 151° |
| 2026-04-28 15:38 | -6.60555 | -53.20332 | 35021 ft | 460 kts | 151° |
| 2026-04-28 15:39 | -6.66210 | -53.17310 | 35023 ft | 460 kts | 150° |
| 2026-04-28 15:39 | -6.71851 | -53.14283 | 35025 ft | 459 kts | 150° |
| 2026-04-28 15:40 | -6.77496 | -53.11254 | 35024 ft | 459 kts | 150° |
| 2026-04-28 15:40 | -6.83137 | -53.08231 | 35026 ft | 459 kts | 151° |
| 2026-04-28 15:41 | -6.88776 | -53.05210 | 35025 ft | 459 kts | 151° |
| 2026-04-28 15:41 | -6.94413 | -53.02189 | 35021 ft | 459 kts | 151° |
| 2026-04-28 15:42 | -7.00045 | -52.99160 | 35020 ft | 459 kts | 150° |
| 2026-04-28 15:42 | -7.05685 | -52.96128 | 35018 ft | 459 kts | 150° |
| 2026-04-28 15:43 | -7.11327 | -52.93107 | 35018 ft | 460 kts | 150° |
| 2026-04-28 15:43 | -7.16973 | -52.90077 | 35016 ft | 459 kts | 150° |
| 2026-04-28 15:44 | -7.22608 | -52.87047 | 35015 ft | 460 kts | 150° |
| 2026-04-28 15:44 | -7.28256 | -52.84012 | 35014 ft | 460 kts | 150° |
| 2026-04-28 15:45 | -7.33910 | -52.80977 | 35013 ft | 460 kts | 150° |
| 2026-04-28 15:45 | -7.39560 | -52.77944 | 35012 ft | 460 kts | 150° |
| 2026-04-28 15:46 | -7.45212 | -52.74906 | 35014 ft | 461 kts | 150° |
| 2026-04-28 15:46 | -7.50867 | -52.71871 | 35014 ft | 461 kts | 150° |
| 2026-04-28 15:47 | -7.56516 | -52.68822 | 35016 ft | 461 kts | 150° |
| 2026-04-28 15:47 | -7.62173 | -52.65775 | 35016 ft | 461 kts | 150° |
| 2026-04-28 15:48 | -7.67829 | -52.62734 | 35016 ft | 461 kts | 150° |
| 2026-04-28 15:48 | -7.73487 | -52.59693 | 35017 ft | 461 kts | 150° |
| 2026-04-28 15:49 | -7.79106 | -52.56670 | 35017 ft | 461 kts | 150° |
| 2026-04-28 15:49 | -7.84755 | -52.53617 | 35019 ft | 461 kts | 150° |
| 2026-04-28 15:50 | -7.90410 | -52.50567 | 35021 ft | 461 kts | 150° |
| 2026-04-28 15:50 | -7.95143 | -52.48019 | 35021 ft | 460 kts | 150° |
| 2026-04-28 15:51 | -8.00793 | -52.44976 | 35022 ft | 460 kts | 150° |
| 2026-04-28 15:51 | -8.06444 | -52.41933 | 35028 ft | 460 kts | 150° |
| 2026-04-28 15:52 | -8.12092 | -52.38886 | 35027 ft | 460 kts | 150° |
| 2026-04-28 15:52 | -8.17743 | -52.35831 | 35028 ft | 460 kts | 150° |
| 2026-04-28 15:53 | -8.23389 | -52.32783 | 35024 ft | 460 kts | 150° |
| 2026-04-28 15:53 | -8.29031 | -52.29735 | 35024 ft | 460 kts | 150° |
| 2026-04-28 15:54 | -8.34672 | -52.26680 | 35021 ft | 460 kts | 150° |
| 2026-04-28 15:54 | -8.40312 | -52.23631 | 35019 ft | 459 kts | 150° |
| 2026-04-28 15:55 | -8.45940 | -52.20591 | 35016 ft | 459 kts | 150° |
| 2026-04-28 15:55 | -8.51561 | -52.17542 | 35006 ft | 459 kts | 150° |
| 2026-04-28 15:56 | -8.57188 | -52.14496 | 35006 ft | 459 kts | 150° |
| 2026-04-28 15:56 | -8.62816 | -52.11448 | 35009 ft | 459 kts | 150° |
| 2026-04-28 15:57 | -8.68453 | -52.08398 | 35014 ft | 459 kts | 150° |
| 2026-04-28 15:57 | -8.74084 | -52.05348 | 35010 ft | 459 kts | 150° |
| 2026-04-28 15:58 | -8.79719 | -52.02302 | 35009 ft | 459 kts | 150° |
| 2026-04-28 15:58 | -8.85351 | -51.99248 | 35012 ft | 459 kts | 150° |
| 2026-04-28 15:59 | -8.90987 | -51.96198 | 35010 ft | 460 kts | 150° |
| 2026-04-28 15:59 | -8.96621 | -51.93147 | 36493 ft | 457 kts | 152° |
| 2026-04-28 16:00 | -9.02197 | -51.90122 | 36146 ft | 453 kts | 152° |
| 2026-04-28 16:00 | -9.04963 | -51.88615 | 35861 ft | 452 kts | 152° |
| 2026-04-28 16:00 | -9.07734 | -51.87106 | 35597 ft | 452 kts | 152° |
| 2026-04-28 16:01 | -9.10502 | -51.85601 | 35322 ft | 452 kts | 152° |
| 2026-04-28 16:01 | -9.13274 | -51.84097 | 35063 ft | 452 kts | 152° |
| 2026-04-28 16:01 | -9.18821 | -51.81087 | 35007 ft | 453 kts | 152° |
| 2026-04-28 16:02 | -9.24374 | -51.78062 | 35003 ft | 453 kts | 152° |
| 2026-04-28 16:02 | -9.29939 | -51.75043 | 35005 ft | 453 kts | 152° |
| 2026-04-28 16:03 | -9.35503 | -51.72023 | 35015 ft | 453 kts | 152° |
| 2026-04-28 16:03 | -9.41061 | -51.69001 | 35013 ft | 453 kts | 152° |
| 2026-04-28 16:04 | -9.46620 | -51.65979 | 35012 ft | 454 kts | 152° |
| 2026-04-28 16:04 | -9.52177 | -51.62953 | 35013 ft | 453 kts | 152° |
| 2026-04-28 16:05 | -9.57736 | -51.59920 | 35009 ft | 453 kts | 152° |
| 2026-04-28 16:05 | -9.63291 | -51.56894 | 35007 ft | 453 kts | 152° |
| 2026-04-28 16:06 | -9.68844 | -51.53867 | 35015 ft | 453 kts | 152° |
| 2026-04-28 16:06 | -9.74395 | -51.50837 | 35008 ft | 453 kts | 152° |
| 2026-04-28 16:07 | -9.79958 | -51.47813 | 35004 ft | 453 kts | 152° |
| 2026-04-28 16:08 | -9.88281 | -51.43267 | 35009 ft | 453 kts | 152° |
| 2026-04-28 16:08 | -9.93828 | -51.40231 | 35004 ft | 453 kts | 152° |
| 2026-04-28 16:09 | -10.02160 | -51.35693 | 35003 ft | 453 kts | 152° |
| 2026-04-28 16:10 | -10.10476 | -51.31140 | 34997 ft | 453 kts | 152° |
| 2026-04-28 16:10 | -10.18801 | -51.26594 | 35003 ft | 453 kts | 152° |
| 2026-04-28 16:11 | -10.29894 | -51.20517 | 35000 ft | 453 kts | 152° |
| 2026-04-28 16:12 | -10.38215 | -51.15961 | 35002 ft | 453 kts | 152° |
| 2026-04-28 16:13 | -10.46530 | -51.11407 | 35007 ft | 453 kts | 152° |
| 2026-04-28 16:14 | -10.57570 | -51.05234 | 35000 ft | 453 kts | 150° |
| 2026-04-28 16:15 | -10.68480 | -50.98810 | 35006 ft | 453 kts | 150° |
| 2026-04-28 16:15 | -10.73955 | -50.95628 | 35006 ft | 453 kts | 150° |
| 2026-04-28 16:16 | -10.82171 | -50.90860 | 35007 ft | 453 kts | 150° |
| 2026-04-28 16:17 | -10.90390 | -50.86092 | 35005 ft | 453 kts | 150° |
| 2026-04-28 16:17 | -10.95862 | -50.82907 | 35006 ft | 453 kts | 150° |
| 2026-04-28 16:18 | -11.01332 | -50.79715 | 35004 ft | 453 kts | 150° |
| 2026-04-28 16:18 | -11.06773 | -50.76537 | 35010 ft | 454 kts | 150° |
| 2026-04-28 16:19 | -11.12251 | -50.73344 | 35015 ft | 454 kts | 150° |
| 2026-04-28 16:19 | -11.17738 | -50.70147 | 35016 ft | 454 kts | 150° |
| 2026-04-28 16:20 | -11.23213 | -50.66951 | 35022 ft | 454 kts | 150° |
| 2026-04-28 16:20 | -11.28697 | -50.63745 | 35023 ft | 454 kts | 150° |
| 2026-04-28 16:21 | -11.34172 | -50.60544 | 35017 ft | 454 kts | 150° |
| 2026-04-28 16:21 | -11.39647 | -50.57348 | 35018 ft | 454 kts | 150° |
| 2026-04-28 16:22 | -11.45127 | -50.54147 | 35022 ft | 454 kts | 150° |
| 2026-04-28 16:22 | -11.50596 | -50.50946 | 35014 ft | 453 kts | 150° |
| 2026-04-28 16:23 | -11.56063 | -50.47743 | 35012 ft | 453 kts | 150° |
| 2026-04-28 16:23 | -11.61534 | -50.44547 | 35012 ft | 453 kts | 150° |
| 2026-04-28 16:24 | -11.67002 | -50.41340 | 35016 ft | 453 kts | 150° |
| 2026-04-28 16:24 | -11.72474 | -50.38124 | 35016 ft | 454 kts | 150° |
| 2026-04-28 16:25 | -11.77948 | -50.34921 | 35016 ft | 454 kts | 150° |
| 2026-04-28 16:25 | -11.83418 | -50.31713 | 35018 ft | 454 kts | 150° |
| 2026-04-28 16:26 | -11.88902 | -50.28497 | 35019 ft | 454 kts | 150° |
| 2026-04-28 16:26 | -11.94378 | -50.25282 | 35021 ft | 454 kts | 150° |
| 2026-04-28 16:27 | -11.99853 | -50.22067 | 35020 ft | 454 kts | 150° |
| 2026-04-28 16:28 | -12.08056 | -50.17236 | 35019 ft | 454 kts | 150° |
| 2026-04-28 16:28 | -12.13530 | -50.14019 | 35017 ft | 453 kts | 150° |
| 2026-04-28 16:29 | -12.21729 | -50.09201 | 35013 ft | 453 kts | 150° |
| 2026-04-28 16:30 | -12.29034 | -50.04899 | 35011 ft | 453 kts | 150° |
| 2026-04-28 16:30 | -12.34490 | -50.01687 | 35012 ft | 453 kts | 150° |
| 2026-04-28 16:31 | -12.39949 | -49.98464 | 35005 ft | 453 kts | 150° |
| 2026-04-28 16:31 | -12.45404 | -49.95243 | 35004 ft | 453 kts | 150° |
| 2026-04-28 16:32 | -12.50860 | -49.92024 | 35006 ft | 453 kts | 150° |
| 2026-04-28 16:32 | -12.59043 | -49.87196 | 35012 ft | 453 kts | 150° |
| 2026-04-28 16:33 | -12.63583 | -49.84513 | 35004 ft | 453 kts | 150° |
| 2026-04-28 16:33 | -12.69953 | -49.80739 | 35007 ft | 452 kts | 150° |
| 2026-04-28 16:34 | -12.75404 | -49.77514 | 34998 ft | 453 kts | 150° |
| 2026-04-28 16:34 | -12.80827 | -49.74306 | 35003 ft | 453 kts | 150° |
| 2026-04-28 16:35 | -12.86280 | -49.71091 | 35008 ft | 453 kts | 150° |
| 2026-04-28 16:35 | -12.91736 | -49.67863 | 35005 ft | 452 kts | 150° |
| 2026-04-28 16:36 | -12.97185 | -49.64629 | 35005 ft | 453 kts | 150° |
| 2026-04-28 16:36 | -13.02657 | -49.61419 | 35012 ft | 453 kts | 150° |
| 2026-04-28 16:37 | -13.08135 | -49.58218 | 35006 ft | 453 kts | 150° |
| 2026-04-28 16:38 | -13.16350 | -49.53402 | 35012 ft | 453 kts | 150° |
| 2026-04-28 16:38 | -13.21821 | -49.50192 | 35013 ft | 453 kts | 150° |
| 2026-04-28 16:39 | -13.27297 | -49.46984 | 35010 ft | 453 kts | 150° |
| 2026-04-28 16:39 | -13.32764 | -49.43778 | 35007 ft | 453 kts | 150° |
| 2026-04-28 16:40 | -13.38224 | -49.40558 | 35005 ft | 453 kts | 150° |
| 2026-04-28 16:40 | -13.43693 | -49.37338 | 35009 ft | 453 kts | 150° |
| 2026-04-28 16:41 | -13.49157 | -49.34126 | 35009 ft | 452 kts | 150° |
| 2026-04-28 16:41 | -13.54622 | -49.30915 | 35001 ft | 452 kts | 150° |
| 2026-04-28 16:42 | -13.60086 | -49.27700 | 35005 ft | 453 kts | 150° |
| 2026-04-28 16:42 | -13.65544 | -49.24472 | 35007 ft | 453 kts | 150° |
| 2026-04-28 16:43 | -13.71003 | -49.21250 | 35003 ft | 452 kts | 150° |
| 2026-04-28 16:43 | -13.76471 | -49.18035 | 35004 ft | 452 kts | 150° |
| 2026-04-28 16:44 | -13.81992 | -49.14931 | 35002 ft | 452 kts | 157° |
| 2026-04-28 16:44 | -13.87784 | -49.12417 | 35000 ft | 452 kts | 158° |
| 2026-04-28 16:45 | -13.93584 | -49.09903 | 35007 ft | 453 kts | 157° |
| 2026-04-28 16:45 | -13.99388 | -49.07386 | 35013 ft | 453 kts | 157° |
| 2026-04-28 16:46 | -14.05195 | -49.04860 | 35009 ft | 453 kts | 157° |
| 2026-04-28 16:46 | -14.10999 | -49.02342 | 35010 ft | 453 kts | 157° |
| 2026-04-28 16:47 | -14.16809 | -48.99820 | 35014 ft | 453 kts | 157° |
| 2026-04-28 16:47 | -14.22619 | -48.97292 | 35013 ft | 453 kts | 157° |
| 2026-04-28 16:48 | -14.28421 | -48.94762 | 35011 ft | 453 kts | 157° |
| 2026-04-28 16:48 | -14.34189 | -48.92250 | 35015 ft | 453 kts | 157° |
| 2026-04-28 16:49 | -14.39995 | -48.89714 | 34771 ft | 453 kts | 157° |
| 2026-04-28 16:49 | -14.42903 | -48.88446 | 34490 ft | 453 kts | 157° |
| 2026-04-28 16:49 | -14.45816 | -48.87177 | 33935 ft | 454 kts | 157° |
| 2026-04-28 16:49 | -14.48723 | -48.85910 | 33311 ft | 454 kts | 157° |
| 2026-04-28 16:50 | -14.51636 | -48.84640 | 32551 ft | 456 kts | 157° |
| 2026-04-28 16:50 | -14.54559 | -48.83365 | 31824 ft | 456 kts | 157° |
| 2026-04-28 16:50 | -14.57486 | -48.82088 | 31123 ft | 455 kts | 157° |
| 2026-04-28 16:50 | -14.60396 | -48.80817 | 30430 ft | 453 kts | 157° |
| 2026-04-28 16:51 | -14.63285 | -48.79555 | 29782 ft | 450 kts | 157° |
| 2026-04-28 16:51 | -14.66165 | -48.78298 | 29129 ft | 447 kts | 157° |
| 2026-04-28 16:51 | -14.69021 | -48.77046 | 28474 ft | 445 kts | 157° |
| 2026-04-28 16:51 | -14.71862 | -48.75802 | 27828 ft | 442 kts | 157° |
| 2026-04-28 16:52 | -14.74686 | -48.74567 | 27177 ft | 440 kts | 157° |
| 2026-04-28 16:52 | -14.77491 | -48.73342 | 26728 ft | 432 kts | 157° |
| 2026-04-28 16:52 | -14.80242 | -48.72140 | 26198 ft | 427 kts | 157° |
| 2026-04-28 16:52 | -14.82968 | -48.70949 | 25621 ft | 424 kts | 157° |
| 2026-04-28 16:53 | -14.85671 | -48.69765 | 25073 ft | 419 kts | 157° |
| 2026-04-28 16:53 | -14.88343 | -48.68594 | 24536 ft | 415 kts | 157° |
| 2026-04-28 16:53 | -14.90980 | -48.67439 | 24015 ft | 410 kts | 157° |
| 2026-04-28 16:53 | -14.93596 | -48.66294 | 23512 ft | 405 kts | 157° |
| 2026-04-28 16:54 | -14.96176 | -48.65164 | 23035 ft | 400 kts | 157° |
| 2026-04-28 16:54 | -14.98727 | -48.64047 | 22558 ft | 396 kts | 157° |
| 2026-04-28 16:54 | -15.01251 | -48.62942 | 22093 ft | 392 kts | 157° |
| 2026-04-28 16:54 | -15.02937 | -48.62197 | 21782 ft | 389 kts | 156° |
| 2026-04-28 16:55 | -15.06194 | -48.60616 | 21184 ft | 384 kts | 154° |
| 2026-04-28 16:55 | -15.08577 | -48.59368 | 20971 ft | 385 kts | 153° |
| 2026-04-28 16:55 | -15.10966 | -48.58086 | 20175 ft | 391 kts | 153° |
| 2026-04-28 16:55 | -15.13368 | -48.56796 | 19754 ft | 386 kts | 153° |
| 2026-04-28 16:56 | -15.15719 | -48.55547 | 19291 ft | 383 kts | 153° |
| 2026-04-28 16:56 | -15.18115 | -48.54288 | 18801 ft | 380 kts | 153° |
| 2026-04-28 16:56 | -15.20436 | -48.53079 | 18319 ft | 378 kts | 154° |
| 2026-04-28 16:56 | -15.22755 | -48.51878 | 18142 ft | 367 kts | 154° |
| 2026-04-28 16:57 | -15.24999 | -48.50717 | 18005 ft | 355 kts | 154° |
| 2026-04-28 16:57 | -15.27151 | -48.49603 | 17758 ft | 338 kts | 154° |
| 2026-04-28 16:57 | -15.29228 | -48.48528 | 17219 ft | 332 kts | 154° |
| 2026-04-28 16:57 | -15.31324 | -48.47443 | 16656 ft | 333 kts | 154° |
| 2026-04-28 16:58 | -15.33366 | -48.46380 | 16112 ft | 333 kts | 154° |
| 2026-04-28 16:58 | -15.35440 | -48.45301 | 15546 ft | 331 kts | 154° |
| 2026-04-28 16:58 | -15.37477 | -48.44244 | 15004 ft | 324 kts | 154° |
| 2026-04-28 16:58 | -15.39474 | -48.43205 | 14472 ft | 318 kts | 154° |
| 2026-04-28 16:59 | -15.41455 | -48.42172 | 13965 ft | 312 kts | 154° |
| 2026-04-28 16:59 | -15.43377 | -48.41172 | 13547 ft | 310 kts | 154° |
| 2026-04-28 16:59 | -15.45309 | -48.40168 | 13135 ft | 311 kts | 154° |
| 2026-04-28 16:59 | -15.47230 | -48.39171 | 12845 ft | 303 kts | 154° |
| 2026-04-28 17:00 | -15.49071 | -48.38213 | 12540 ft | 291 kts | 154° |
| 2026-04-28 17:00 | -15.50848 | -48.37286 | 12194 ft | 282 kts | 154° |
| 2026-04-28 17:00 | -15.52591 | -48.36376 | 11835 ft | 281 kts | 154° |
| 2026-04-28 17:00 | -15.54343 | -48.35465 | 11482 ft | 282 kts | 154° |
| 2026-04-28 17:01 | -15.56093 | -48.34553 | 11119 ft | 278 kts | 154° |
| 2026-04-28 17:01 | -15.57798 | -48.33664 | 10731 ft | 271 kts | 154° |
| 2026-04-28 17:01 | -15.59466 | -48.32795 | 10326 ft | 265 kts | 154° |
| 2026-04-28 17:01 | -15.61098 | -48.31951 | 9919 ft | 260 kts | 154° |
| 2026-04-28 17:02 | -15.62717 | -48.31120 | 9570 ft | 260 kts | 154° |
| 2026-04-28 17:02 | -15.63786 | -48.30571 | 9377 ft | 259 kts | 154° |
| 2026-04-28 17:02 | -15.65941 | -48.29464 | 8971 ft | 257 kts | 154° |
| 2026-04-28 17:02 | -15.67519 | -48.28655 | 8672 ft | 256 kts | 154° |
| 2026-04-28 17:03 | -15.70586 | -48.27083 | 8173 ft | 240 kts | 154° |
| 2026-04-28 17:03 | -15.72069 | -48.26318 | 7975 ft | 237 kts | 154° |
| 2026-04-28 17:03 | -15.73530 | -48.25563 | 7783 ft | 232 kts | 154° |
| 2026-04-28 17:04 | -15.76358 | -48.24108 | 7515 ft | 221 kts | 154° |
| 2026-04-28 17:04 | -15.77721 | -48.23406 | 7390 ft | 218 kts | 154° |
| 2026-04-28 17:05 | -15.80056 | -48.21467 | 6989 ft | 217 kts | 133° |
| 2026-04-28 17:05 | -15.81080 | -48.20318 | 6791 ft | 216 kts | 133° |
| 2026-04-28 17:05 | -15.82101 | -48.19174 | 6611 ft | 215 kts | 133° |